Time;durP1;ratioP1;P1;durP2;ratioP2;P2;SDS_P1;SDS_P2;PMS_P1;PMS_P2;Temp;Humidity;BMP_temperature;BMP_pressure;BME280_temperature;BME280_humidity;BME280_pressure;Samples;Min_cycle;Max_cycle;Signal;HPM_P1;HPM_P2
2022/04/05 00:00:17;;;;;;;12.88;2.58;;;;;;;;;;5116187;28;20488;-35
2022/04/05 00:02:43;;;;;;;10.13;1.48;;;;;;;;;;5116253;28;20055;-35
2022/04/05 00:05:09;;;;;;;19.08;2.35;;;;;;;;;;5116283;28;20054;-35
2022/04/05 00:07:35;;;;;;;13.73;2.95;;;;;;;;;;5098046;28;20488;-36
2022/04/05 00:10:01;;;;;;;9.05;1.38;;;;;;;;;;5116494;28;20165;-35
2022/04/05 00:12:28;;;;;;;10.20;1.83;;;;;;;;;;5082131;28;20054;-34
2022/04/05 00:14:54;;;;;;;14.50;2.05;;;;;;;;;;5116115;28;20067;-36
2022/04/05 00:17:20;;;;;;;9.75;1.60;;;;;;;;;;5116091;28;20043;-35
2022/04/05 00:19:46;;;;;;;14.07;2.30;;;;;;;;;;5115975;28;20047;-38
2022/04/05 00:22:12;;;;;;;14.95;2.53;;;;;;;;;;5116008;28;20130;-35
2022/04/05 00:24:38;;;;;;;10.50;1.83;;;;;;;;;;5081304;28;20410;-35
2022/04/05 00:27:04;;;;;;;14.57;1.95;;;;;;;;;;5115916;28;20115;-35
2022/04/05 00:29:30;;;;;;;14.15;2.50;;;;;;;;;;5115867;28;20040;-35
2022/04/05 00:31:56;;;;;;;7.95;2.00;;;;;;;;;;5097842;28;20047;-36
2022/04/05 00:34:25;;;;;;;9.85;1.95;;;;;;;;;;5079975;28;20046;-37
2022/04/05 00:36:52;;;;;;;24.60;2.53;;;;;;;;;;5081740;28;20086;-35
2022/04/05 00:39:18;;;;;;;18.17;3.33;;;;;;;;;;5116137;28;20043;-36
2022/04/05 00:41:44;;;;;;;15.55;1.60;;;;;;;;;;5115549;28;20142;-37
2022/04/05 00:44:10;;;;;;;16.42;2.70;;;;;;;;;;5115551;28;20083;-38
2022/04/05 00:46:36;;;;;;;17.65;2.22;;;;;;;;;;5115493;28;20058;-38
2022/04/05 00:49:03;;;;;;;19.17;2.35;;;;;;;;;;5115434;28;20126;-35
2022/04/05 00:51:29;;;;;;;16.77;2.05;;;;;;;;;;5097416;28;20138;-35
2022/04/05 00:53:58;;;;;;;13.43;1.92;;;;;;;;;;5097390;28;20447;-37
2022/04/05 00:56:25;;;;;;;14.00;2.22;;;;;;;;;;5115590;28;20511;-39
2022/04/05 00:58:54;;;;;;;14.18;2.28;;;;;;;;;;5115972;28;20067;-37
2022/04/05 01:01:22;;;;;;;14.05;2.70;;;;;;;;;;5115201;28;20044;-39
2022/04/05 01:03:49;;;;;;;18.23;2.05;;;;;;;;;;5115820;28;20055;-38
2022/04/05 01:06:26;;;;;;;12.98;2.55;;;;;;;;;;5115632;28;20052;-39
2022/04/05 01:08:53;;;;;;;12.43;2.28;;;;;;;;;;5114759;28;20508;-36
2022/04/05 01:11:19;;;;;;;14.48;2.13;;;;;;;;;;5114981;28;20047;-40
2022/04/05 01:13:45;;;;;;;10.48;2.22;;;;;;;;;;5097006;28;20499;-39
2022/04/05 01:16:12;;;;;;;19.67;2.58;;;;;;;;;;5114936;28;20127;-40
2022/04/05 01:18:38;;;;;;;19.63;3.38;;;;;;;;;;5115322;28;20035;-38
2022/04/05 01:21:04;;;;;;;10.52;2.65;;;;;;;;;;5114866;28;20135;-40
2022/04/05 01:23:30;;;;;;;20.40;2.90;;;;;;;;;;5096593;28;20561;-37
2022/04/05 01:25:57;;;;;;;14.05;2.50;;;;;;;;;;5114764;28;20548;-39
2022/04/05 01:28:23;;;;;;;14.65;3.00;;;;;;;;;;5114702;28;20082;-38
2022/04/05 01:30:50;;;;;;;21.98;2.65;;;;;;;;;;5114695;28;20378;-40
2022/04/05 01:33:16;;;;;;;14.38;3.15;;;;;;;;;;5079672;28;20048;-41
2022/04/05 01:35:43;;;;;;;18.30;2.92;;;;;;;;;;5114536;28;20098;-38
2022/04/05 01:38:10;;;;;;;19.17;4.00;;;;;;;;;;5114496;28;20086;-37
2022/04/05 01:40:36;;;;;;;16.70;3.38;;;;;;;;;;5096033;28;20085;-40
2022/04/05 01:43:02;;;;;;;29.67;3.40;;;;;;;;;;5096443;28;20085;-40
2022/04/05 01:45:28;;;;;;;16.45;3.10;;;;;;;;;;5114160;28;20115;-39
2022/04/05 01:47:54;;;;;;;18.10;2.50;;;;;;;;;;5114348;28;20060;-40
2022/04/05 01:50:21;;;;;;;22.67;2.78;;;;;;;;;;5096339;28;20126;-40
2022/04/05 01:52:47;;;;;;;15.80;2.42;;;;;;;;;;5114297;28;20058;-39
2022/04/05 01:55:13;;;;;;;16.80;2.80;;;;;;;;;;5096339;28;20047;-39
2022/04/05 01:57:39;;;;;;;14.80;2.65;;;;;;;;;;5114248;28;20054;-40
2022/04/05 02:00:06;;;;;;;21.08;3.70;;;;;;;;;;5114161;28;20036;-40
2022/04/05 02:02:32;;;;;;;16.80;3.10;;;;;;;;;;5095940;28;20574;-39
2022/04/05 02:04:58;;;;;;;23.75;3.40;;;;;;;;;;5114709;28;20054;-40
2022/04/05 02:07:25;;;;;;;29.15;3.30;;;;;;;;;;5114705;28;20039;-41
2022/04/05 02:09:52;;;;;;;27.63;3.33;;;;;;;;;;5096180;28;20043;-40
2022/04/05 02:12:18;;;;;;;29.23;3.80;;;;;;;;;;5096235;28;20048;-41
2022/04/05 02:14:45;;;;;;;19.90;3.15;;;;;;;;;;5114078;28;20534;-41
2022/04/05 02:17:14;;;;;;;19.30;3.05;;;;;;;;;;5114109;28;20401;-40
2022/04/05 02:19:40;;;;;;;23.65;3.38;;;;;;;;;;5114519;28;20044;-41
2022/04/05 02:22:06;;;;;;;25.02;3.35;;;;;;;;;;5113722;28;20489;-40
2022/04/05 02:24:32;;;;;;;27.70;3.38;;;;;;;;;;5113981;28;20069;-40
2022/04/05 02:26:58;;;;;;;27.52;3.50;;;;;;;;;;5095685;28;20075;-40
2022/04/05 02:29:24;;;;;;;24.25;3.67;;;;;;;;;;5095862;28;20438;-40
2022/04/05 02:31:50;;;;;;;23.67;2.88;;;;;;;;;;5113603;28;20549;-39
2022/04/05 02:34:16;;;;;;;26.40;3.38;;;;;;;;;;5113814;28;20048;-41
2022/04/05 02:36:42;;;;;;;31.73;5.20;;;;;;;;;;5113923;28;20075;-40
2022/04/05 02:39:09;;;;;;;31.80;3.83;;;;;;;;;;5095750;28;20469;-40
2022/04/05 02:41:35;;;;;;;27.13;4.72;;;;;;;;;;5113875;28;20047;-40
2022/04/05 02:44:01;;;;;;;22.73;3.10;;;;;;;;;;5113771;28;20043;-41
2022/04/05 02:46:27;;;;;;;26.88;3.53;;;;;;;;;;5114585;28;20158;-39
2022/04/05 02:48:54;;;;;;;26.05;3.58;;;;;;;;;;5113735;28;20044;-40
2022/04/05 02:51:21;;;;;;;32.55;5.97;;;;;;;;;;5113772;28;20050;-39
2022/04/05 02:53:47;;;;;;;23.38;3.50;;;;;;;;;;5113682;28;20098;-39
2022/04/05 02:56:13;;;;;;;20.88;3.08;;;;;;;;;;5114286;28;20086;-40
2022/04/05 02:58:40;;;;;;;27.20;3.55;;;;;;;;;;5098986;28;20470;-40
2022/04/05 03:01:06;;;;;;;24.00;2.67;;;;;;;;;;5117563;28;20087;-40
2022/04/05 03:03:32;;;;;;;18.00;2.83;;;;;;;;;;5117358;28;20101;-40
2022/04/05 03:05:59;;;;;;;21.15;3.03;;;;;;;;;;5117459;28;20047;-40
2022/04/05 03:08:25;;;;;;;18.95;3.25;;;;;;;;;;5117722;28;20065;-41
2022/04/05 03:10:52;;;;;;;21.85;3.30;;;;;;;;;;5100066;28;20051;-40
2022/04/05 03:13:19;;;;;;;19.08;2.85;;;;;;;;;;5117313;28;20092;-40
2022/04/05 03:15:45;;;;;;;21.40;2.28;;;;;;;;;;5117839;28;20096;-40
2022/04/05 03:18:11;;;;;;;25.52;3.08;;;;;;;;;;5117220;28;20132;-40
2022/04/05 03:20:37;;;;;;;24.55;2.95;;;;;;;;;;5117203;28;20051;-41
2022/04/05 03:23:04;;;;;;;26.42;3.83;;;;;;;;;;5117163;28;20139;-39
2022/04/05 03:25:31;;;;;;;21.63;3.65;;;;;;;;;;5117635;28;20052;-39
2022/04/05 03:28:01;;;;;;;27.88;4.03;;;;;;;;;;5117095;28;20130;-40
2022/04/05 03:30:27;;;;;;;22.98;3.92;;;;;;;;;;5117614;28;20109;-40
2022/04/05 03:32:53;;;;;;;21.15;3.38;;;;;;;;;;5117393;28;20043;-40
2022/04/05 03:35:19;;;;;;;19.33;3.15;;;;;;;;;;5098963;28;20048;-40
2022/04/05 03:37:45;;;;;;;22.10;3.05;;;;;;;;;;5117104;28;20443;-41
2022/04/05 03:40:12;;;;;;;25.55;3.80;;;;;;;;;;5098613;28;20084;-40
2022/04/05 03:42:39;;;;;;;26.13;3.08;;;;;;;;;;5117301;28;20100;-40
2022/04/05 03:45:06;;;;;;;17.35;2.60;;;;;;;;;;5099304;28;20078;-37
2022/04/05 03:47:32;;;;;;;27.40;3.45;;;;;;;;;;5117236;28;20176;-39
2022/04/05 03:49:58;;;;;;;18.50;2.70;;;;;;;;;;5117191;28;20040;-40
2022/04/05 03:52:24;;;;;;;23.58;3.20;;;;;;;;;;5116675;28;20087;-40
2022/04/05 03:54:50;;;;;;;34.90;7.00;;;;;;;;;;5116556;28;20126;-39
2022/04/05 03:57:16;;;;;;;23.27;3.88;;;;;;;;;;5116544;28;20039;-40
2022/04/05 03:59:43;;;;;;;20.83;3.17;;;;;;;;;;5116364;28;20491;-39
2022/04/05 04:02:09;;;;;;;30.20;3.80;;;;;;;;;;5116097;28;20051;-39
2022/04/05 04:04:35;;;;;;;20.85;2.40;;;;;;;;;;5098386;28;20052;-39
2022/04/05 04:07:02;;;;;;;25.13;2.42;;;;;;;;;;5116325;28;20055;-39
2022/04/05 04:09:28;;;;;;;21.42;2.63;;;;;;;;;;5115622;28;20040;-38
2022/04/05 04:11:54;;;;;;;28.35;3.85;;;;;;;;;;5116179;28;20100;-40
2022/04/05 04:14:20;;;;;;;20.70;2.78;;;;;;;;;;5099078;28;20111;-41
2022/04/05 04:16:46;;;;;;;25.05;2.95;;;;;;;;;;5116127;28;20047;-38
2022/04/05 04:19:12;;;;;;;21.40;3.97;;;;;;;;;;5115996;28;20036;-39
2022/04/05 04:21:38;;;;;;;14.02;2.13;;;;;;;;;;5116048;28;20146;-38
2022/04/05 04:24:05;;;;;;;17.88;2.47;;;;;;;;;;5115970;28;20493;-38
2022/04/05 04:26:31;;;;;;;17.33;2.33;;;;;;;;;;5115937;28;20047;-40
2022/04/05 04:29:01;;;;;;;27.08;2.95;;;;;;;;;;5115861;28;20082;-37
2022/04/05 04:31:27;;;;;;;18.02;2.75;;;;;;;;;;5115899;28;20537;-39
2022/04/05 04:33:53;;;;;;;18.30;2.55;;;;;;;;;;5115355;28;20382;-40
2022/04/05 04:36:19;;;;;;;16.73;2.08;;;;;;;;;;5115753;28;20039;-38
2022/04/05 04:38:45;;;;;;;23.95;3.22;;;;;;;;;;5115633;28;20035;-41
2022/04/05 04:41:12;;;;;;;19.35;2.80;;;;;;;;;;5115601;28;20043;-39
2022/04/05 04:43:38;;;;;;;20.30;2.50;;;;;;;;;;5115548;28;20055;-40
2022/04/05 04:46:04;;;;;;;24.08;2.67;;;;;;;;;;5115532;28;20043;-36
2022/04/05 04:48:30;;;;;;;19.67;2.70;;;;;;;;;;5115552;28;20043;-39
2022/04/05 04:50:57;;;;;;;22.35;2.53;;;;;;;;;;5116253;28;20373;-39
2022/04/05 04:53:24;;;;;;;24.55;3.08;;;;;;;;;;5115372;28;20039;-38
2022/04/05 04:55:50;;;;;;;26.20;3.53;;;;;;;;;;5115318;28;20043;-36
2022/04/05 04:58:16;;;;;;;19.90;2.53;;;;;;;;;;5115197;28;20039;-38
2022/04/05 05:00:43;;;;;;;19.70;3.13;;;;;;;;;;5115561;28;20043;-37
2022/04/05 05:03:10;;;;;;;22.55;2.85;;;;;;;;;;5115473;28;20066;-39
2022/04/05 05:05:37;;;;;;;22.13;3.58;;;;;;;;;;5115717;28;20051;-39
2022/04/05 05:08:03;;;;;;;22.33;4.45;;;;;;;;;;5115079;28;20469;-37
2022/04/05 05:10:29;;;;;;;28.38;3.22;;;;;;;;;;5115133;28;20564;-39
2022/04/05 05:12:55;;;;;;;13.07;2.30;;;;;;;;;;5115038;28;20048;-39
2022/04/05 05:15:21;;;;;;;25.63;2.53;;;;;;;;;;5079825;28;20043;-39
2022/04/05 05:17:48;;;;;;;20.45;3.53;;;;;;;;;;5114777;28;20048;-40
2022/04/05 05:20:14;;;;;;;25.30;2.55;;;;;;;;;;5114129;28;20048;-39
2022/04/05 05:22:40;;;;;;;25.35;2.92;;;;;;;;;;5114904;28;20047;-39
2022/04/05 05:25:07;;;;;;;14.60;3.35;;;;;;;;;;5096475;28;20548;-38
2022/04/05 05:27:33;;;;;;;29.45;2.95;;;;;;;;;;5114652;28;20397;-40
2022/04/05 05:30:00;;;;;;;24.63;3.17;;;;;;;;;;5114646;28;20039;-38
2022/04/05 05:32:26;;;;;;;22.80;3.50;;;;;;;;;;5114440;28;20094;-40
2022/04/05 05:34:52;;;;;;;19.23;3.70;;;;;;;;;;5114220;28;20459;-38
2022/04/05 05:37:18;;;;;;;29.38;3.65;;;;;;;;;;5114483;28;20043;-40
2022/04/05 05:39:45;;;;;;;30.52;3.72;;;;;;;;;;5114304;28;20131;-39
2022/04/05 05:42:11;;;;;;;21.73;3.50;;;;;;;;;;5114705;28;20086;-41
2022/04/05 05:44:37;;;;;;;24.65;3.63;;;;;;;;;;5114437;28;20043;-38
2022/04/05 05:47:04;;;;;;;22.05;2.95;;;;;;;;;;5096678;28;20048;-40
2022/04/05 05:49:31;;;;;;;17.27;3.03;;;;;;;;;;5113943;28;20485;-40
2022/04/05 05:51:57;;;;;;;20.55;3.72;;;;;;;;;;5114266;28;20280;-39
2022/04/05 05:54:23;;;;;;;20.25;2.85;;;;;;;;;;5096556;28;20054;-36
2022/04/05 05:56:49;;;;;;;18.10;2.70;;;;;;;;;;5114726;28;20050;-38
2022/04/05 05:59:15;;;;;;;20.70;2.20;;;;;;;;;;5114090;28;20035;-39
2022/04/05 06:01:41;;;;;;;24.67;3.30;;;;;;;;;;5095840;28;20048;-40
2022/04/05 06:04:07;;;;;;;22.00;3.13;;;;;;;;;;5114602;28;20147;-39
2022/04/05 06:06:33;;;;;;;19.27;2.33;;;;;;;;;;5113726;28;20489;-40
2022/04/05 06:08:59;;;;;;;24.05;3.55;;;;;;;;;;5114074;28;20039;-39
2022/04/05 06:11:26;;;;;;;14.95;3.88;;;;;;;;;;5114007;28;20078;-41
2022/04/05 06:13:52;;;;;;;21.77;2.40;;;;;;;;;;5114020;28;20051;-39
2022/04/05 06:16:18;;;;;;;20.20;2.50;;;;;;;;;;5113974;28;20082;-39
2022/04/05 06:18:48;;;;;;;12.95;2.30;;;;;;;;;;5113970;28;20044;-40
2022/04/05 06:21:14;;;;;;;23.33;3.88;;;;;;;;;;5114462;28;20121;-40
2022/04/05 06:23:41;;;;;;;18.48;2.05;;;;;;;;;;5113828;28;20039;-40
2022/04/05 06:26:07;;;;;;;19.42;2.90;;;;;;;;;;5113845;28;20656;-39
2022/04/05 06:28:33;;;;;;;20.73;2.47;;;;;;;;;;5113880;28;20051;-40
2022/04/05 06:30:59;;;;;;;26.02;3.90;;;;;;;;;;5114367;28;20384;-40
2022/04/05 06:33:26;;;;;;;18.23;2.53;;;;;;;;;;5098963;28;20050;-40
2022/04/05 06:35:53;;;;;;;18.20;2.70;;;;;;;;;;5082931;28;20511;-37
2022/04/05 06:38:20;;;;;;;20.13;2.75;;;;;;;;;;5118299;28;20050;-40
2022/04/05 06:40:46;;;;;;;14.25;2.85;;;;;;;;;;5099823;28;20051;-41
2022/04/05 06:43:13;;;;;;;23.52;3.25;;;;;;;;;;5118307;28;20088;-41
2022/04/05 06:45:40;;;;;;;16.52;3.13;;;;;;;;;;5099427;28;20047;-40
2022/04/05 06:48:06;;;;;;;18.90;2.45;;;;;;;;;;5099651;28;20497;-40
2022/04/05 06:50:36;;;;;;;16.33;2.72;;;;;;;;;;5099729;28;20052;-39
2022/04/05 06:53:03;;;;;;;21.25;3.65;;;;;;;;;;5117622;28;20519;-39
2022/04/05 06:55:29;;;;;;;22.67;3.72;;;;;;;;;;5117840;28;20431;-40
2022/04/05 06:57:56;;;;;;;13.55;2.80;;;;;;;;;;5118110;28;20054;-39
2022/04/05 07:00:23;;;;;;;13.63;2.15;;;;;;;;;;5117423;28;20051;-40
2022/04/05 07:02:51;;;;;;;14.95;3.20;;;;;;;;;;5117451;28;20481;-39
2022/04/05 07:05:17;;;;;;;15.30;2.63;;;;;;;;;;5117365;28;20551;-41
2022/04/05 07:07:43;;;;;;;15.38;2.88;;;;;;;;;;5117309;28;20046;-40
2022/04/05 07:10:10;;;;;;;13.57;2.35;;;;;;;;;;5082356;28;20043;-38
2022/04/05 07:12:37;;;;;;;10.20;3.17;;;;;;;;;;5117880;28;20377;-40
2022/04/05 07:15:03;;;;;;;10.07;2.13;;;;;;;;;;5117216;28;20043;-39
2022/04/05 07:17:29;;;;;;;15.85;3.15;;;;;;;;;;5117159;28;20089;-39
2022/04/05 07:19:56;;;;;;;12.98;2.90;;;;;;;;;;5117078;28;20073;-40
2022/04/05 07:22:24;;;;;;;12.70;2.15;;;;;;;;;;5117093;28;20481;-39
2022/04/05 07:24:50;;;;;;;10.82;2.05;;;;;;;;;;5117302;28;20050;-39
2022/04/05 07:27:16;;;;;;;12.25;2.42;;;;;;;;;;5116995;28;20353;-40
2022/04/05 07:29:42;;;;;;;13.82;2.30;;;;;;;;;;5116918;28;20050;-40
2022/04/05 07:32:08;;;;;;;13.23;3.22;;;;;;;;;;5117216;28;20071;-39
2022/04/05 07:34:34;;;;;;;11.45;2.83;;;;;;;;;;5098746;28;20051;-38
2022/04/05 07:37:00;;;;;;;10.32;1.83;;;;;;;;;;5098824;28;20040;-39
2022/04/05 07:39:26;;;;;;;13.68;2.10;;;;;;;;;;5116640;28;20461;-38
2022/04/05 07:41:52;;;;;;;10.45;2.13;;;;;;;;;;5116778;28;20075;-35
2022/04/05 07:44:19;;;;;;;15.20;3.08;;;;;;;;;;5115572;28;20051;-39
2022/04/05 07:46:45;;;;;;;9.48;2.83;;;;;;;;;;5116913;28;20378;-39
2022/04/05 07:49:11;;;;;;;10.48;2.50;;;;;;;;;;5117406;28;20088;-36
2022/04/05 07:51:37;;;;;;;14.88;2.28;;;;;;;;;;5116577;28;20058;-39
2022/04/05 07:54:05;;;;;;;13.65;1.77;;;;;;;;;;5116588;28;20044;-35
2022/04/05 07:56:31;;;;;;;8.80;2.25;;;;;;;;;;5116480;28;20050;-36
2022/04/05 07:58:57;;;;;;;10.05;3.15;;;;;;;;;;5116277;28;20186;-36
2022/04/05 08:01:24;;;;;;;9.57;2.53;;;;;;;;;;5116409;28;20047;-35
2022/04/05 08:03:51;;;;;;;10.13;2.20;;;;;;;;;;5116871;28;20155;-38
2022/04/05 08:06:17;;;;;;;16.13;3.15;;;;;;;;;;5116180;28;20144;-38
2022/04/05 08:08:43;;;;;;;12.57;2.22;;;;;;;;;;5116256;28;20157;-35
2022/04/05 08:11:09;;;;;;;12.80;2.25;;;;;;;;;;5116211;28;20047;-35
2022/04/05 08:13:35;;;;;;;9.70;1.85;;;;;;;;;;5116095;28;20079;-35
2022/04/05 08:16:01;;;;;;;14.38;2.33;;;;;;;;;;5116038;28;20100;-35
2022/04/05 08:18:27;;;;;;;7.78;2.13;;;;;;;;;;5115896;28;20043;-37
2022/04/05 08:20:54;;;;;;;12.63;1.48;;;;;;;;;;5116508;28;20052;-35
2022/04/05 08:23:20;;;;;;;15.70;3.15;;;;;;;;;;5115997;28;20131;-35
2022/04/05 08:25:46;;;;;;;12.23;2.85;;;;;;;;;;5115953;28;20046;-36
2022/04/05 08:28:12;;;;;;;10.07;2.58;;;;;;;;;;5115820;28;20043;-35
2022/04/05 08:30:38;;;;;;;10.60;2.63;;;;;;;;;;5097485;28;20052;-37
2022/04/05 08:33:05;;;;;;;13.52;2.20;;;;;;;;;;5115991;28;20044;-35
2022/04/05 08:35:31;;;;;;;8.27;2.38;;;;;;;;;;5115656;28;20043;-35
2022/04/05 08:37:57;;;;;;;10.57;2.65;;;;;;;;;;5115618;28;20051;-35
2022/04/05 08:40:25;;;;;;;11.13;2.45;;;;;;;;;;5080564;28;20039;-36
2022/04/05 08:42:52;;;;;;;11.80;3.08;;;;;;;;;;5098129;28;20467;-36
2022/04/05 08:45:19;;;;;;;9.27;2.45;;;;;;;;;;5116174;28;20044;-37
2022/04/05 08:47:53;;;;;;;15.30;2.63;;;;;;;;;;5115442;28;20039;-36
2022/04/05 08:50:23;;;;;;;9.85;2.60;;;;;;;;;;5115447;28;20097;-36
2022/04/05 08:52:50;;;;;;;8.82;2.08;;;;;;;;;;5116420;28;20097;-36
2022/04/05 08:55:16;;;;;;;13.48;2.35;;;;;;;;;;5115409;28;20122;-38
2022/04/05 08:57:43;;;;;;;10.20;2.70;;;;;;;;;;5115234;28;20043;-37
2022/04/05 09:00:10;;;;;;;6.82;2.00;;;;;;;;;;5097826;28;20114;-35
2022/04/05 09:02:36;;;;;;;10.40;2.33;;;;;;;;;;5115048;28;20056;-34
2022/04/05 09:05:04;;;;;;;10.40;2.05;;;;;;;;;;5114698;28;20096;-35
2022/04/05 09:07:31;;;;;;;12.20;2.20;;;;;;;;;;5080614;28;20108;-36
2022/04/05 09:10:19;;;;;;;9.23;2.15;;;;;;;;;;5114998;28;20048;-35
2022/04/05 09:12:48;;;;;;;7.47;1.98;;;;;;;;;;5114954;28;20083;-35
2022/04/05 09:15:18;;;;;;;10.07;2.33;;;;;;;;;;5096968;28;20090;-36
2022/04/05 09:17:45;;;;;;;8.07;2.30;;;;;;;;;;5114818;28;20047;-35
2022/04/05 09:20:12;;;;;;;6.95;1.77;;;;;;;;;;5114729;28;20039;-35
2022/04/05 09:22:38;;;;;;;7.20;1.98;;;;;;;;;;5115295;28;20101;-35
2022/04/05 09:25:05;;;;;;;7.05;2.20;;;;;;;;;;5079937;28;20164;-35
2022/04/05 09:27:50;;;;;;;10.23;2.35;;;;;;;;;;5115273;28;20036;-34
2022/04/05 09:30:17;;;;;;;8.75;2.03;;;;;;;;;;5115158;28;20405;-35
2022/04/05 09:32:47;;;;;;;10.13;2.90;;;;;;;;;;5115277;28;20047;-35
2022/04/05 09:35:14;;;;;;;11.60;2.58;;;;;;;;;;5114803;28;20039;-35
2022/04/05 09:37:40;;;;;;;14.82;2.75;;;;;;;;;;5114317;28;20043;-35
2022/04/05 09:40:15;;;;;;;7.63;2.83;;;;;;;;;;5114384;28;20130;-35
2022/04/05 09:43:05;;;;;;;9.38;2.72;;;;;;;;;;5114380;28;20047;-34
2022/04/05 09:45:48;;;;;;;14.30;3.20;;;;;;;;;;5103551;28;20497;-33
2022/04/05 09:48:15;;;;;;;11.68;2.80;;;;;;;;;;5114449;28;20050;-33
2022/04/05 09:50:58;;;;;;;11.65;3.78;;;;;;;;;;5114386;28;20130;-32
2022/04/05 09:53:25;;;;;;;12.70;3.90;;;;;;;;;;5095949;28;20127;-32
2022/04/05 09:56:11;;;;;;;12.68;3.60;;;;;;;;;;5095632;28;20059;-31
2022/04/05 09:58:43;;;;;;;14.20;4.55;;;;;;;;;;5096113;28;20116;-32
2022/04/05 10:01:11;;;;;;;9.15;2.83;;;;;;;;;;5095960;28;20090;-31
2022/04/05 10:03:44;;;;;;;8.95;3.08;;;;;;;;;;5114154;28;20067;-32
2022/04/05 10:06:10;;;;;;;8.23;2.03;;;;;;;;;;5113891;28;20051;-31
2022/04/05 10:08:37;;;;;;;7.57;2.47;;;;;;;;;;5095216;28;20044;-31
2022/04/05 10:11:03;;;;;;;5.97;1.80;;;;;;;;;;5095902;28;20165;-32
2022/04/05 10:13:30;;;;;;;4.18;1.33;;;;;;;;;;5095743;28;20082;-31
2022/04/05 10:15:57;;;;;;;6.93;2.35;;;;;;;;;;5113947;28;20485;-31
2022/04/05 10:18:24;;;;;;;4.93;1.75;;;;;;;;;;5113857;28;20044;-30
2022/04/05 10:20:51;;;;;;;4.45;1.55;;;;;;;;;;5113979;28;20431;-33
2022/04/05 10:23:22;;;;;;;3.88;1.30;;;;;;;;;;5113908;28;20058;-30
2022/04/05 10:25:51;;;;;;;3.38;1.23;;;;;;;;;;5114481;28;20054;-30
2022/04/05 10:28:19;;;;;;;5.50;1.95;;;;;;;;;;5113964;28;20078;-31
2022/04/05 10:30:50;;;;;;;6.93;1.98;;;;;;;;;;5113598;28;20422;-31
2022/04/05 10:33:26;;;;;;;3.97;1.10;;;;;;;;;;5095899;28;20087;-31
2022/04/05 10:35:57;;;;;;;5.45;1.52;;;;;;;;;;5113760;28;20047;-31
2022/04/05 10:38:24;;;;;;;2.45;0.52;;;;;;;;;;5113706;28;20184;-30
2022/04/05 10:41:24;;;;;;;4.60;1.05;;;;;;;;;;5113776;28;20054;-32
2022/04/05 10:44:09;;;;;;;4.97;1.30;;;;;;;;;;5070103;28;20366;-32
2022/04/05 10:46:39;;;;;;;4.25;1.80;;;;;;;;;;5113721;28;20054;-32
2022/04/05 10:49:07;;;;;;;3.35;1.90;;;;;;;;;;5095301;28;20491;-31
2022/04/05 10:51:53;;;;;;;5.18;1.90;;;;;;;;;;5113624;28;20047;-31
2022/04/05 10:54:19;;;;;;;4.00;1.98;;;;;;;;;;5113903;28;20047;-31
2022/04/05 10:57:05;;;;;;;5.40;3.00;;;;;;;;;;5113641;28;20047;-31
2022/04/05 10:59:46;;;;;;;6.97;2.30;;;;;;;;;;5113842;28;20044;-32
2022/04/05 11:02:28;;;;;;;6.10;3.28;;;;;;;;;;5113486;28;20132;-32
2022/04/05 11:05:20;;;;;;;6.10;3.13;;;;;;;;;;5113571;28;20147;-31
2022/04/05 11:07:52;;;;;;;4.50;1.67;;;;;;;;;;5112718;28;20097;-31
2022/04/05 11:10:19;;;;;;;3.15;2.40;;;;;;;;;;5078818;28;20059;-32
2022/04/05 11:12:46;;;;;;;4.38;2.15;;;;;;;;;;5113530;28;20055;-31
2022/04/05 11:15:15;;;;;;;4.43;2.80;;;;;;;;;;5114050;28;20127;-32
2022/04/05 11:17:42;;;;;;;3.22;1.90;;;;;;;;;;5113836;28;20067;-31
2022/04/05 11:20:09;;;;;;;3.75;2.10;;;;;;;;;;5117372;28;20407;-32
2022/04/05 11:22:37;;;;;;;1.27;1.10;;;;;;;;;;5117143;28;20050;-33
2022/04/05 11:25:06;;;;;;;2.88;1.50;;;;;;;;;;5117166;28;20044;-32
2022/04/05 11:27:45;;;;;;;2.40;1.30;;;;;;;;;;5098756;28;20135;-33
2022/04/05 11:30:26;;;;;;;2.95;1.52;;;;;;;;;;5117101;28;20066;-32
2022/04/05 11:33:17;;;;;;;4.35;1.42;;;;;;;;;;5116914;28;20500;-33
2022/04/05 11:35:44;;;;;;;2.22;1.23;;;;;;;;;;5117601;28;20135;-34
2022/04/05 11:38:19;;;;;;;3.30;1.42;;;;;;;;;;5116892;28;20051;-34
2022/04/05 11:40:46;;;;;;;2.97;1.27;;;;;;;;;;5117324;28;20127;-34
2022/04/05 11:43:19;;;;;;;2.45;1.13;;;;;;;;;;5098535;28;20066;-34
2022/04/05 11:45:48;;;;;;;2.00;1.23;;;;;;;;;;5116697;28;20051;-34
2022/04/05 11:48:18;;;;;;;2.00;1.38;;;;;;;;;;5116691;28;20039;-35
2022/04/05 11:50:44;;;;;;;1.80;1.33;;;;;;;;;;5116611;28;20055;-34
2022/04/05 11:53:19;;;;;;;1.80;1.23;;;;;;;;;;5116872;28;20358;-33
2022/04/05 11:56:18;;;;;;;2.45;1.30;;;;;;;;;;5117041;28;20054;-33
2022/04/05 11:58:39;;;;;;;2.65;1.55;;;;;;;;;;5112813;28;20066;-33
2022/04/05 12:01:06;;;;;;;1.55;1.40;;;;;;;;;;5116422;28;20051;-33
2022/04/05 12:03:42;;;;;;;2.10;1.63;;;;;;;;;;5116494;28;20550;-33
2022/04/05 12:06:08;;;;;;;1.58;1.25;;;;;;;;;;5116363;28;20055;-34
2022/04/05 12:08:34;;;;;;;2.58;1.75;;;;;;;;;;5117080;28;20130;-34
2022/04/05 12:11:00;;;;;;;2.40;1.23;;;;;;;;;;5116193;28;20473;-33
2022/04/05 12:13:27;;;;;;;2.42;1.40;;;;;;;;;;5098505;28;20071;-33
2022/04/05 12:15:58;;;;;;;2.03;1.38;;;;;;;;;;5116361;28;20035;-37
2022/04/05 12:18:24;;;;;;;1.67;1.58;;;;;;;;;;5098313;28;20052;-34
2022/04/05 12:20:54;;;;;;;1.38;1.25;;;;;;;;;;5116804;28;20131;-35
2022/04/05 12:23:21;;;;;;;1.92;1.33;;;;;;;;;;5115972;28;20048;-34
2022/04/05 12:26:02;;;;;;;2.25;1.77;;;;;;;;;;5115944;28;20063;-34
2022/04/05 12:28:28;;;;;;;1.80;1.48;;;;;;;;;;5115829;28;20082;-34
2022/04/05 12:31:03;;;;;;;1.67;1.35;;;;;;;;;;5097836;28;20506;-34
2022/04/05 12:33:29;;;;;;;1.60;1.40;;;;;;;;;;5116230;28;20049;-34
2022/04/05 12:35:55;;;;;;;3.75;2.75;;;;;;;;;;5097820;28;20089;-34
2022/04/05 12:38:21;;;;;;;2.10;1.52;;;;;;;;;;5115315;28;20485;-36
2022/04/05 12:40:47;;;;;;;2.67;2.15;;;;;;;;;;5097720;28;20423;-34
2022/04/05 12:43:14;;;;;;;2.40;1.90;;;;;;;;;;5082158;27;20043;-34
2022/04/05 12:45:41;;;;;;;3.17;1.70;;;;;;;;;;5128148;27;20122;-34
2022/04/05 12:48:17;;;;;;;2.72;2.42;;;;;;;;;;5101055;27;20047;-35
2022/04/05 12:50:45;;;;;;;2.55;2.22;;;;;;;;;;5135992;27;20125;-34
2022/04/05 12:53:13;;;;;;;3.58;2.38;;;;;;;;;;5136236;27;20095;-33
2022/04/05 12:55:39;;;;;;;3.63;2.40;;;;;;;;;;5135854;27;20097;-33
2022/04/05 12:58:07;;;;;;;4.22;2.88;;;;;;;;;;5135536;27;20512;-33
2022/04/05 13:00:42;;;;;;;3.28;2.72;;;;;;;;;;5135687;27;20043;-30
2022/04/05 13:03:11;;;;;;;5.25;3.85;;;;;;;;;;5136220;27;20059;-30
2022/04/05 13:08:33;;;;;;;6.05;4.18;;;;;;;;;;5135948;27;20046;-29
2022/04/05 13:10:59;;;;;;;5.20;3.72;;;;;;;;;;5135607;27;20054;-29
2022/04/05 13:13:27;;;;;;;7.57;4.00;;;;;;;;;;5135544;27;20043;-30
2022/04/05 13:16:02;;;;;;;8.38;4.07;;;;;;;;;;5135459;27;20050;-29
2022/04/05 13:18:39;;;;;;;10.00;5.18;;;;;;;;;;5135346;27;20051;-29
2022/04/05 13:21:06;;;;;;;11.25;5.45;;;;;;;;;;5135460;27;20043;-30
2022/04/05 13:23:33;;;;;;;4.20;3.38;;;;;;;;;;5135978;27;20047;-29
2022/04/05 13:25:59;;;;;;;9.48;6.43;;;;;;;;;;5135645;27;20049;-30
2022/04/05 13:28:33;;;;;;;10.10;5.72;;;;;;;;;;5116992;28;20115;-31
2022/04/05 13:31:06;;;;;;;11.10;6.40;;;;;;;;;;5117459;27;20090;-30
2022/04/05 13:33:32;;;;;;;8.18;4.68;;;;;;;;;;5116993;27;20480;-31
2022/04/05 13:35:58;;;;;;;19.50;9.20;;;;;;;;;;5135171;27;20122;-31
2022/04/05 13:38:26;;;;;;;16.58;8.23;;;;;;;;;;5117468;27;20039;-32
2022/04/05 13:40:53;;;;;;;18.15;8.65;;;;;;;;;;5134933;27;20051;-32
2022/04/05 13:43:20;;;;;;;17.48;6.85;;;;;;;;;;5134457;27;20118;-32
2022/04/05 13:45:46;;;;;;;21.48;9.88;;;;;;;;;;5134991;27;20130;-32
2022/04/05 13:48:12;;;;;;;20.10;8.70;;;;;;;;;;5134928;27;20047;-33
2022/04/05 13:50:38;;;;;;;23.60;10.80;;;;;;;;;;5134890;27;20046;-35
2022/04/05 13:53:04;;;;;;;24.35;9.07;;;;;;;;;;5134941;27;20050;-34
2022/04/05 13:55:30;;;;;;;20.10;9.27;;;;;;;;;;5134829;27;20051;-33
2022/04/05 13:57:56;;;;;;;18.95;8.82;;;;;;;;;;5134862;27;20043;-33
2022/04/05 14:00:23;;;;;;;30.33;11.38;;;;;;;;;;5134693;27;20403;-35
2022/04/05 14:02:52;;;;;;;22.58;9.20;;;;;;;;;;5112774;28;20052;-34
2022/04/05 14:05:18;;;;;;;24.38;9.38;;;;;;;;;;5114322;28;20043;-34
2022/04/05 14:07:45;;;;;;;24.95;10.80;;;;;;;;;;5113128;28;20110;-35
2022/04/05 14:10:13;;;;;;;27.00;11.75;;;;;;;;;;5113055;28;20051;-35
2022/04/05 14:12:39;;;;;;;29.25;10.98;;;;;;;;;;5113018;28;20448;-34
2022/04/05 14:15:06;;;;;;;26.15;12.05;;;;;;;;;;5115013;28;20525;-34
2022/04/05 14:17:32;;;;;;;34.95;13.60;;;;;;;;;;5096099;28;20512;-34
2022/04/05 14:19:59;;;;;;;28.60;14.75;;;;;;;;;;5112703;28;20177;-35
2022/04/05 14:22:26;;;;;;;26.85;11.00;;;;;;;;;;5114023;28;20051;-33
2022/04/05 14:24:52;;;;;;;28.67;10.55;;;;;;;;;;5114011;28;20080;-34
2022/04/05 14:27:18;;;;;;;25.42;12.10;;;;;;;;;;5113938;28;20051;-33
2022/04/05 14:29:44;;;;;;;24.73;10.48;;;;;;;;;;5113956;28;20036;-34
2022/04/05 14:32:12;;;;;;;26.52;11.93;;;;;;;;;;5113592;28;20515;-34
2022/04/05 14:34:39;;;;;;;28.70;11.82;;;;;;;;;;5113607;28;20549;-34
2022/04/05 14:37:05;;;;;;;30.40;10.85;;;;;;;;;;5112941;28;20047;-34
2022/04/05 14:39:31;;;;;;;20.38;9.75;;;;;;;;;;5113759;28;20043;-36